This is the latest recevied weather packets stored in our database for station/object HB0RER-13. If no packets are shown the sender has not sent any weather packets the latest 10 day(s).
| Time | Temp. | Humidity | Pressure | Rain* | Wind** | Luminosity | Snow |
|---|---|---|---|---|---|---|---|
| 1777685645 | 9.44° C | 72% | 1023.8 hPa | 0 mm | - | - | - |
| 1777669994 | 12.22° C | 59% | 1024 hPa | 0 mm | - | - | - |
| 1777668187 | 12.78° C | 55% | 1023.9 hPa | 0 mm | - | - | - |
| 1777665799 | 13.89° C | 51% | 1023.7 hPa | 0 mm | - | - | - |
| 1777661566 | 17.22° C | 41% | 1022.9 hPa | 0 mm | - | - | - |
| 1777655567 | 21.11° C | 33% | 1022.5 hPa | 0 mm | - | - | - |
| 1777652536 | 21.67° C | 28% | 1022.7 hPa | 0 mm | - | - | - |
| 1777649545 | 21.67° C | 28% | 1023 hPa | 0 mm | - | - | - |
| 1777648923 | 21.67° C | 30% | 1023 hPa | 0 mm | - | - | - |
| 1777646516 | 21.11° C | 33% | 1023.5 hPa | 0 mm | - | - | - |
| 1777638087 | 19.44° C | 41% | 1024.8 hPa | 0 mm | - | - | - |
| 1777636886 | 18.89° C | 41% | 1024.9 hPa | 0 mm | - | - | - |
| 1777636292 | 18.89° C | 41% | 1025.1 hPa | 0 mm | - | - | - |
| 1777634476 | 18.33° C | 43% | 1025.3 hPa | 0 mm | - | - | - |
| 1777614609 | 11.67° C | 65% | 1025.9 hPa | 0 mm | - | - | - |
| 1777613425 | 8.33° C | 69% | 1025.7 hPa | 0 mm | - | - | - |
| 1777612804 | 7.78° C | 69% | 1025.7 hPa | 0 mm | - | - | - |
| 1777611619 | 5.56° C | 74% | 1025.4 hPa | 0 mm | - | - | - |
| 1777609191 | 4.44° C | 73% | 1025.1 hPa | 0 mm | - | - | - |
| 1777607988 | 4.44° C | 74% | 1025.1 hPa | 0 mm | - | - | - |
| 1777603172 | 3.89° C | 69% | 1025.1 hPa | 0 mm | - | - | - |
| 1777600161 | 5.56° C | 65% | 1024.8 hPa | 0 mm | - | - | - |
| 1777596549 | 6.11° C | 61% | 1024.8 hPa | 0 mm | - | - | - |
| 1777594744 | 6.67° C | 58% | 1024.7 hPa | 0 mm | - | - | - |
| 1777588723 | 8.33° C | 52% | 1024.3 hPa | 0 mm | - | - | - |
* Rain latest hour (hover to see other rain measurements)
** Current wind speed in m/s (hover to see current wind gust speed)